To NAV CANADA Home Page Login to a new session Search on AWWS site Disclaimer Vers la page française équivalente Tips FAQ What's new on the site To the Forecasts and Observations / NOTAM section To "File a Flight Plan" website Publications and other links Update of the User's profile FIC Telephone Numbers My Weather Data Folder Route Weather Data Regional Weather Data Local Weather Data To the Forecasts and Observations / NOTAM section
Request Generated 12/17/2018 at 00:10:15 UTC . Weather information available at that time is displayed.


Go to a specific product

Save this request - Inactive

METAR/TAF

OTTAWA/MACDONALD-CARTIER INTL/ON    

METAR CYOW 170000Z 10004KT 15SM FEW100 OVC120 M01/M03 A2996 RMK AC2AC6 SLP152=
METAR CYOW 162300Z 10008KT 15SM FEW100 BKN120 M00/M03 A2997 RMK AC1AC6 AC TR SLP156=
METAR CYOW 162200Z 08010KT 15SM FEW100 BKN150 BKN220 M00/M03 A2999 RMK AC1AC5CI1 AC TR SLP162=

TAF CYOW 162338Z 1700/1724 09007KT P6SM BKN120
FM170300 09005KT P6SM SCT020 OVC100 TEMPO 1703/1708 FEW004 BKN020
PROB30 1704/1708 2SM BR BKN004
FM170800 VRB03KT 3/4SM BR OVC003 PROB30 1708/1714 2SM -FZDZ BR
FM171400 30006KT 6SM BR SCT004 BKN030
FM171600 31015G25KT 4SM -SHSN OVC020 PROB30 1716/1720 2SM -SHSN
FM172000 31015G25KT P6SM BKN030
RMK NXT FCST BY 170300Z=

OTTAWA/GATINEAU/QC    

METAR CYND 170000Z 12005KT 15SM OVC100 00/M03 A2997 RMK AC8 SLP154=
METAR CYND 162300Z 10007KT 15SM SCT110 OVC150 00/M03 A2998 RMK AC4AC4 SLP158=
METAR CYND 162200Z 11006KT 15SM BKN160 BKN220 00/M03 A3001 RMK AC7CI1 CI TR SLP167=

TAF CYND 162338Z 1700/1702 10007KT P6SM SCT110 OVC150
RMK NXT FCST WILL BE ISSUED AT 171345Z=


GRAPHICAL FA CLOUDS & WEATHER FORECASTS
To the Product Selector
Graphical FA gfacn33      

GRAPHICAL FA ICING, TURBULENCE & FREEZING LEVEL FORECASTS
To the Product Selector
Graphical FA gfacn33      

Your time UTC time
Weather data provided by Environment Canada and NAV CANADA